Aviation Digital Data Service (ADDS)

Output produced by METARs form (0608 UTC 22 February 2017)
found at http://aviationweather.gov/adds/metars/
 
KDTW 220522Z 2206/2312 19005KT 3SM BR SCT015 BKN045 
     FM220900 19004KT 1 1/2SM BR SCT005 OVC015 
     TEMPO 2209/2213 1/2SM FG OVC004 
     FM221400 20006KT 4SM BR SCT008 OVC022 
     FM221600 20010KT P6SM OVC150 
     FM222200 18007KT P6SM BKN200 
     FM230400 19009KT 4SM BR BKN022 
     FM230800 20010KT 2SM BR BKN015